Elyros — SVOM — position and weather

sailwx.info

Track history (hours):
 
Tides and Currents Weather Stations Pressure Air Temp Water Temp Dewpoint Dewpoint Depression Visibility Wind Speed Wind Dir Waves Ship Positions

Elyros

Last reported at 2018-Feb-24 21:02 UTC. Time now 2018-Feb-25 10:11 UTC.
Position N 37°25' E 023°47'.

Length 192 m; draft 5.4 m.

Type: Ship. MMSI: 240685000.

Date/timePositionNaut miles runAvg speedWind from/ knotsBaromVisibWave heightAir tempDewpointWater temp
2018-Feb-24 21:02N 37°25' E 023°47'119.3
2018-Feb-24 20:59N 37°26' E 023°47'919.4
2018-Feb-24 20:30N 37°35' E 023°44'1019.3
2018-Feb-24 20:00N 37°44' E 023°40'918.7
2018-Feb-24 19:30N 37°53' E 023°37'4 8.6
2018-Feb-24 19:00N 37°57' E 023°38'0 0.0
2018-Feb-24 18:30N 37°57' E 023°38'0 0.0
2018-Feb-24 18:00N 37°57' E 023°38'0 0.0
2018-Feb-24 17:30N 37°57' E 023°38'0 0.0
2018-Feb-24 17:00N 37°57' E 023°38'0 0.0
2018-Feb-24 16:30N 37°57' E 023°38'0 0.0
2018-Feb-24 16:00N 37°57' E 023°38'0 0.0
2018-Feb-24 15:30N 37°57' E 023°38'0 0.0
2018-Feb-24 15:00N 37°57' E 023°38'0 0.0
2018-Feb-24 14:30N 37°57' E 023°38'0 0.0
2018-Feb-24 14:00N 37°57' E 023°38'0 0.0
2018-Feb-24 13:30N 37°57' E 023°38'0 0.0
2018-Feb-24 13:00N 37°57' E 023°38'0 0.0
2018-Feb-24 12:30N 37°57' E 023°38'0 0.0
2018-Feb-24 12:00N 37°57' E 023°38'0 0.0
2018-Feb-24 11:30N 37°57' E 023°38'0 0.0
2018-Feb-24 11:00N 37°57' E 023°38'0 0.0
2018-Feb-24 10:30N 37°57' E 023°38'0 0.0
2018-Feb-24 10:00N 37°57' E 023°38'0 0.0
2018-Feb-24 09:30N 37°57' E 023°38'0 0.0
2018-Feb-24 09:00N 37°57' E 023°38'0 0.0
2018-Feb-24 08:30N 37°57' E 023°38'0 0.0
2018-Feb-24 08:00N 37°57' E 023°38'0 0.0
2018-Feb-24 07:30N 37°57' E 023°38'0 0.0
2018-Feb-24 07:00N 37°57' E 023°38'0 0.0
2018-Feb-24 06:30N 37°57' E 023°38'0 0.0
2018-Feb-24 06:00N 37°57' E 023°38'0 0.0
2018-Feb-24 05:30N 37°57' E 023°38'0 0.0
2018-Feb-24 05:00N 37°57' E 023°38'0 0.0
2018-Feb-24 04:30N 37°57' E 023°38'0 0.0
2018-Feb-24 04:00N 37°57' E 023°38'1 1.7
2018-Feb-24 03:30N 37°56' E 023°37'713.5
2018-Feb-24 03:00N 37°50' E 023°39'1019.4
2018-Feb-24 02:30N 37°41' E 023°45'1019.1
2018-Feb-24 02:00N 37°32' E 023°47'13 0.4
2018-Feb-22 21:25N 37°19' E 023°49'1319.4
2018-Feb-22 20:46N 37°31' E 023°45'519.2
2018-Feb-22 20:30N 37°36' E 023°43'1020.6
2018-Feb-22 20:00N 37°46' E 023°38'816.8
2018-Feb-22 19:30N 37°54' E 023°37'3 6.3
2018-Feb-22 19:00N 37°57' E 023°38'0 0.0
2018-Feb-22 18:30N 37°57' E 023°38'0 0.0
2018-Feb-22 18:00N 37°57' E 023°38'0 0.0
2018-Feb-22 17:30N 37°57' E 023°38'0 0.0
2018-Feb-22 17:00N 37°57' E 023°38'0 0.0
2018-Feb-22 16:30N 37°57' E 023°38'0 0.0
2018-Feb-22 16:00N 37°57' E 023°38'0 0.0
2018-Feb-22 15:30N 37°57' E 023°38'0 0.0
2018-Feb-22 15:00N 37°57' E 023°38'0 0.0
2018-Feb-22 14:30N 37°57' E 023°38'0 0.0
2018-Feb-22 14:00N 37°57' E 023°38'0 0.0
2018-Feb-22 13:30N 37°57' E 023°38'0 0.0
2018-Feb-22 13:00N 37°57' E 023°38'0 0.0
2018-Feb-22 12:30N 37°57' E 023°38'0 0.0
2018-Feb-22 12:00N 37°57' E 023°38'0 0.0
2018-Feb-22 11:30N 37°57' E 023°38'0 0.0
2018-Feb-22 11:00N 37°57' E 023°38'0 0.0
2018-Feb-22 10:30N 37°57' E 023°38'0 0.0
2018-Feb-22 10:00N 37°57' E 023°38'0 0.0
2018-Feb-22 09:30N 37°57' E 023°38'0 0.0
2018-Feb-22 09:00N 37°57' E 023°38'0 0.0
2018-Feb-22 08:30N 37°57' E 023°38'0 0.0
2018-Feb-22 08:00N 37°57' E 023°38'0 0.0
2018-Feb-22 07:30N 37°57' E 023°38'0 0.0
2018-Feb-22 07:00N 37°57' E 023°38'0 0.0
2018-Feb-22 06:30N 37°57' E 023°38'0 0.0
2018-Feb-22 06:00N 37°57' E 023°38'0 0.0
2018-Feb-22 05:30N 37°57' E 023°38'0 0.0
2018-Feb-22 05:00N 37°57' E 023°38'0 0.0
2018-Feb-22 04:30N 37°57' E 023°38'0 0.0
2018-Feb-22 04:00N 37°57' E 023°38'1 1.5
2018-Feb-22 03:30N 37°56' E 023°38'816.2
2018-Feb-22 03:01N 37°49' E 023°41'918.9
2018-Feb-22 02:30N 37°40' E 023°46'21 0.7
2018-Feb-20 21:26N 37°19' E 023°48'1219.5
2018-Feb-20 20:48N 37°31' E 023°45'619.4
2018-Feb-20 20:31N 37°37' E 023°43'1019.3
2018-Feb-20 20:01N 37°46' E 023°39'918.3
2018-Feb-20 19:30N 37°55' E 023°37'2 4.7
2018-Feb-20 19:00N 37°57' E 023°38'0 0.0
2018-Feb-20 18:30N 37°57' E 023°38'0 0.0
2018-Feb-20 18:00N 37°57' E 023°38'0 0.0
2018-Feb-20 17:30N 37°57' E 023°38'0 0.0
2018-Feb-20 17:00N 37°57' E 023°38'0 0.0
2018-Feb-20 16:30N 37°57' E 023°38'0 0.0
2018-Feb-20 16:00N 37°57' E 023°38'0 0.0
2018-Feb-20 15:30N 37°57' E 023°38'0 0.0
2018-Feb-20 15:00N 37°57' E 023°38'0 0.0
2018-Feb-20 14:30N 37°57' E 023°38'0 0.0
2018-Feb-20 14:00N 37°57' E 023°38'0 0.0
2018-Feb-20 13:30N 37°57' E 023°38'0 0.0
2018-Feb-20 13:00N 37°57' E 023°38'0 0.0
2018-Feb-20 12:30N 37°57' E 023°38'0 0.0
2018-Feb-20 12:00N 37°57' E 023°38'0 0.0
2018-Feb-20 11:30N 37°57' E 023°38'0 0.0
2018-Feb-20 11:00N 37°57' E 023°38'0 0.0
2018-Feb-20 10:30N 37°57' E 023°38'0 0.0
2018-Feb-20 10:00N 37°57' E 023°38'0 0.0
2018-Feb-20 09:30N 37°57' E 023°38'0 0.0
2018-Feb-20 09:00N 37°57' E 023°38'0 0.0
2018-Feb-20 08:30N 37°57' E 023°38'0 0.0
2018-Feb-20 08:00N 37°57' E 023°38'0 0.0
2018-Feb-20 07:28N 37°57' E 023°38'0 0.0
2018-Feb-20 07:00N 37°57' E 023°38'0 0.0
2018-Feb-20 06:30N 37°57' E 023°38'0 0.0
2018-Feb-20 06:00N 37°57' E 023°38'0 0.0
2018-Feb-20 05:30N 37°57' E 023°38'0 0.0
2018-Feb-20 05:00N 37°57' E 023°38'0 0.0
2018-Feb-20 04:30N 37°57' E 023°38'0 0.0
2018-Feb-20 04:00N 37°57' E 023°38'1 1.8
2018-Feb-20 03:30N 37°56' E 023°37'917.0
2018-Feb-20 03:00N 37°48' E 023°41'1019.4
2018-Feb-20 02:30N 37°39' E 023°44'18 0.6
2018-Feb-18 21:09N 37°21' E 023°47'419.5
2018-Feb-18 20:55N 37°26' E 023°46'819.5
2018-Feb-18 20:30N 37°33' E 023°44'1019.4
2018-Feb-18 20:00N 37°43' E 023°40'1019.1
2018-Feb-18 19:31N 37°52' E 023°36'510.4
2018-Feb-18 19:00N 37°57' E 023°38'0 0.0
2018-Feb-18 18:30N 37°57' E 023°38'0 0.0
2018-Feb-18 18:00N 37°57' E 023°38'0 0.0
2018-Feb-18 17:30N 37°57' E 023°38'0 0.0
2018-Feb-18 17:00N 37°57' E 023°38'0 0.0
2018-Feb-18 16:30N 37°57' E 023°38'0 0.0
2018-Feb-18 16:00N 37°57' E 023°38'0 0.0
2018-Feb-18 15:30N 37°57' E 023°38'0 0.0
2018-Feb-18 15:00N 37°57' E 023°38'0 0.0
2018-Feb-18 14:30N 37°57' E 023°38'0 0.0
2018-Feb-18 14:00N 37°57' E 023°38'0 0.0
2018-Feb-18 13:30N 37°57' E 023°38'0 0.0
2018-Feb-18 13:00N 37°57' E 023°38'0 0.0
2018-Feb-18 12:30N 37°57' E 023°38'0 0.0
2018-Feb-18 12:00N 37°57' E 023°38'0 0.0
2018-Feb-18 11:30N 37°57' E 023°38'0 0.0
2018-Feb-18 11:00N 37°57' E 023°38'0 0.0
2018-Feb-18 10:30N 37°57' E 023°38'0 0.0
2018-Feb-18 10:00N 37°57' E 023°38'0 0.0
2018-Feb-18 09:30N 37°57' E 023°38'0 0.0
2018-Feb-18 09:00N 37°57' E 023°38'0 0.0
2018-Feb-18 08:30N 37°57' E 023°38'0 0.0
2018-Feb-18 08:00N 37°57' E 023°38'0 0.0
2018-Feb-18 07:30N 37°57' E 023°38'0 0.0
2018-Feb-18 07:00N 37°57' E 023°38'0 0.0
2018-Feb-18 06:30N 37°57' E 023°38'0 0.0
2018-Feb-18 06:00N 37°57' E 023°38'0 0.0
2018-Feb-18 05:30N 37°57' E 023°38'0 0.0
2018-Feb-18 05:00N 37°57' E 023°38'0 0.0
2018-Feb-18 04:30N 37°57' E 023°38'0 0.0
2018-Feb-18 04:00N 37°57' E 023°38'1 2.8
2018-Feb-18 03:30N 37°56' E 023°37'918.0
2018-Feb-18 03:00N 37°48' E 023°41'918.8
2018-Feb-18 02:30N 37°39' E 023°45'919.0
2018-Feb-18 02:01N 37°30' E 023°47'4 0.1
2018-Feb-16 20:52N 37°33' E 023°44'719.5
2018-Feb-16 20:31N 37°39' E 023°42'1019.6
2018-Feb-16 20:01N 37°48' E 023°37'815.8
2018-Feb-16 19:30N 37°56' E 023°38'0 1.0
2018-Feb-16 19:01N 37°57' E 023°38'0 0.0
2018-Feb-16 18:31N 37°57' E 023°38'0 0.0
2018-Feb-16 18:01N 37°57' E 023°38'0 0.0
2018-Feb-16 17:31N 37°57' E 023°38'0 0.0
2018-Feb-16 17:00N 37°57' E 023°38'0 0.0
2018-Feb-16 16:31N 37°57' E 023°38'0 0.0
2018-Feb-16 16:01N 37°57' E 023°38'0 0.0
2018-Feb-16 15:31N 37°57' E 023°38'0 0.0
2018-Feb-16 15:01N 37°57' E 023°38'0 0.0
2018-Feb-16 14:31N 37°57' E 023°38'0 0.0
2018-Feb-16 14:01N 37°57' E 023°38'0 0.0
2018-Feb-16 13:31N 37°57' E 023°38'0 0.0
2018-Feb-16 13:01N 37°57' E 023°38'0 0.0
2018-Feb-16 12:31N 37°57' E 023°38'0 0.0
2018-Feb-16 12:01N 37°57' E 023°38'0 0.0
2018-Feb-16 11:31N 37°57' E 023°38'0 0.0
2018-Feb-16 11:01N 37°57' E 023°38'0 0.0
2018-Feb-16 10:31N 37°57' E 023°38'0 0.0
2018-Feb-16 10:00N 37°57' E 023°38'0 0.0
2018-Feb-16 09:31N 37°57' E 023°38'0 0.0
2018-Feb-16 09:01N 37°57' E 023°38'0 0.0
2018-Feb-16 08:31N 37°57' E 023°38'0 0.0
2018-Feb-16 08:00N 37°57' E 023°38'0 0.0
2018-Feb-16 07:31N 37°57' E 023°38'0 0.0
2018-Feb-16 07:01N 37°57' E 023°38'0 0.0
2018-Feb-16 06:31N 37°57' E 023°38'0 0.0
2018-Feb-16 06:01N 37°57' E 023°38'0 0.0
2018-Feb-16 05:31N 37°57' E 023°38'0 0.0
2018-Feb-16 05:01N 37°57' E 023°38'0 0.0
2018-Feb-16 04:31N 37°57' E 023°38'0 0.0
2018-Feb-16 04:01N 37°57' E 023°38'2 4.4
2018-Feb-16 03:30N 37°55' E 023°37'918.7
2018-Feb-16 03:00N 37°46' E 023°42'918.5
2018-Feb-16 02:30N 37°38' E 023°45'12 0.4
2018-Feb-14 21:06N 37°26' E 023°45'  
Track history (hours):
 
Tides and Currents Weather Stations Pressure Air Temp Water Temp Dewpoint Dewpoint Depression Visibility Wind Speed Wind Dir Waves Ship Positions

Elyros

Last reported at 2018-Feb-24 21:02 UTC. Time now 2018-Feb-25 10:11 UTC.
Position N 37°25' E 023°47'.

Length 192 m; draft 5.4 m.

Type: Ship. MMSI: 240685000.

Date/timePositionNaut miles runAvg speedWind from/ knotsBaromVisibWave heightAir tempDewpointWater temp
2018-Feb-24 21:02N 37°25' E 023°47'119.3
2018-Feb-24 20:59N 37°26' E 023°47'919.4
2018-Feb-24 20:30N 37°35' E 023°44'1019.3
2018-Feb-24 20:00N 37°44' E 023°40'918.7
2018-Feb-24 19:30N 37°53' E 023°37'4 8.6
2018-Feb-24 19:00N 37°57' E 023°38'0 0.0
2018-Feb-24 18:30N 37°57' E 023°38'0 0.0
2018-Feb-24 18:00N 37°57' E 023°38'0 0.0
2018-Feb-24 17:30N 37°57' E 023°38'0 0.0
2018-Feb-24 17:00N 37°57' E 023°38'0 0.0
2018-Feb-24 16:30N 37°57' E 023°38'0 0.0
2018-Feb-24 16:00N 37°57' E 023°38'0 0.0
2018-Feb-24 15:30N 37°57' E 023°38'0 0.0
2018-Feb-24 15:00N 37°57' E 023°38'0 0.0
2018-Feb-24 14:30N 37°57' E 023°38'0 0.0
2018-Feb-24 14:00N 37°57' E 023°38'0 0.0
2018-Feb-24 13:30N 37°57' E 023°38'0 0.0
2018-Feb-24 13:00N 37°57' E 023°38'0 0.0
2018-Feb-24 12:30N 37°57' E 023°38'0 0.0
2018-Feb-24 12:00N 37°57' E 023°38'0 0.0
2018-Feb-24 11:30N 37°57' E 023°38'0 0.0
2018-Feb-24 11:00N 37°57' E 023°38'0 0.0
2018-Feb-24 10:30N 37°57' E 023°38'0 0.0
2018-Feb-24 10:00N 37°57' E 023°38'0 0.0
2018-Feb-24 09:30N 37°57' E 023°38'0 0.0
2018-Feb-24 09:00N 37°57' E 023°38'0 0.0
2018-Feb-24 08:30N 37°57' E 023°38'0 0.0
2018-Feb-24 08:00N 37°57' E 023°38'0 0.0
2018-Feb-24 07:30N 37°57' E 023°38'0 0.0
2018-Feb-24 07:00N 37°57' E 023°38'0 0.0
2018-Feb-24 06:30N 37°57' E 023°38'0 0.0
2018-Feb-24 06:00N 37°57' E 023°38'0 0.0
2018-Feb-24 05:30N 37°57' E 023°38'0 0.0
2018-Feb-24 05:00N 37°57' E 023°38'0 0.0
2018-Feb-24 04:30N 37°57' E 023°38'0 0.0
2018-Feb-24 04:00N 37°57' E 023°38'1 1.7
2018-Feb-24 03:30N 37°56' E 023°37'713.5
2018-Feb-24 03:00N 37°50' E 023°39'1019.4
2018-Feb-24 02:30N 37°41' E 023°45'1019.1
2018-Feb-24 02:00N 37°32' E 023°47'13 0.4
2018-Feb-22 21:25N 37°19' E 023°49'1319.4
2018-Feb-22 20:46N 37°31' E 023°45'519.2
2018-Feb-22 20:30N 37°36' E 023°43'1020.6
2018-Feb-22 20:00N 37°46' E 023°38'816.8
2018-Feb-22 19:30N 37°54' E 023°37'3 6.3
2018-Feb-22 19:00N 37°57' E 023°38'0 0.0
2018-Feb-22 18:30N 37°57' E 023°38'0 0.0
2018-Feb-22 18:00N 37°57' E 023°38'0 0.0
2018-Feb-22 17:30N 37°57' E 023°38'0 0.0
2018-Feb-22 17:00N 37°57' E 023°38'0 0.0
2018-Feb-22 16:30N 37°57' E 023°38'0 0.0
2018-Feb-22 16:00N 37°57' E 023°38'0 0.0
2018-Feb-22 15:30N 37°57' E 023°38'0 0.0
2018-Feb-22 15:00N 37°57' E 023°38'0 0.0
2018-Feb-22 14:30N 37°57' E 023°38'0 0.0
2018-Feb-22 14:00N 37°57' E 023°38'0 0.0
2018-Feb-22 13:30N 37°57' E 023°38'0 0.0
2018-Feb-22 13:00N 37°57' E 023°38'0 0.0
2018-Feb-22 12:30N 37°57' E 023°38'0 0.0
2018-Feb-22 12:00N 37°57' E 023°38'0 0.0
2018-Feb-22 11:30N 37°57' E 023°38'0 0.0
2018-Feb-22 11:00N 37°57' E 023°38'0 0.0
2018-Feb-22 10:30N 37°57' E 023°38'0 0.0
2018-Feb-22 10:00N 37°57' E 023°38'0 0.0
2018-Feb-22 09:30N 37°57' E 023°38'0 0.0
2018-Feb-22 09:00N 37°57' E 023°38'0 0.0
2018-Feb-22 08:30N 37°57' E 023°38'0 0.0
2018-Feb-22 08:00N 37°57' E 023°38'0 0.0
2018-Feb-22 07:30N 37°57' E 023°38'0 0.0
2018-Feb-22 07:00N 37°57' E 023°38'0 0.0
2018-Feb-22 06:30N 37°57' E 023°38'0 0.0
2018-Feb-22 06:00N 37°57' E 023°38'0 0.0
2018-Feb-22 05:30N 37°57' E 023°38'0 0.0
2018-Feb-22 05:00N 37°57' E 023°38'0 0.0
2018-Feb-22 04:30N 37°57' E 023°38'0 0.0
2018-Feb-22 04:00N 37°57' E 023°38'1 1.5
2018-Feb-22 03:30N 37°56' E 023°38'816.2
2018-Feb-22 03:01N 37°49' E 023°41'918.9
2018-Feb-22 02:30N 37°40' E 023°46'21 0.7
2018-Feb-20 21:26N 37°19' E 023°48'1219.5
2018-Feb-20 20:48N 37°31' E 023°45'619.4
2018-Feb-20 20:31N 37°37' E 023°43'1019.3
2018-Feb-20 20:01N 37°46' E 023°39'918.3
2018-Feb-20 19:30N 37°55' E 023°37'2 4.7
2018-Feb-20 19:00N 37°57' E 023°38'0 0.0
2018-Feb-20 18:30N 37°57' E 023°38'0 0.0
2018-Feb-20 18:00N 37°57' E 023°38'0 0.0
2018-Feb-20 17:30N 37°57' E 023°38'0 0.0
2018-Feb-20 17:00N 37°57' E 023°38'0 0.0
2018-Feb-20 16:30N 37°57' E 023°38'0 0.0
2018-Feb-20 16:00N 37°57' E 023°38'0 0.0
2018-Feb-20 15:30N 37°57' E 023°38'0 0.0
2018-Feb-20 15:00N 37°57' E 023°38'0 0.0
2018-Feb-20 14:30N 37°57' E 023°38'0 0.0
2018-Feb-20 14:00N 37°57' E 023°38'0 0.0
2018-Feb-20 13:30N 37°57' E 023°38'0 0.0
2018-Feb-20 13:00N 37°57' E 023°38'0 0.0
2018-Feb-20 12:30N 37°57' E 023°38'0 0.0
2018-Feb-20 12:00N 37°57' E 023°38'0 0.0
2018-Feb-20 11:30N 37°57' E 023°38'0 0.0
2018-Feb-20 11:00N 37°57' E 023°38'0 0.0
2018-Feb-20 10:30N 37°57' E 023°38'0 0.0
2018-Feb-20 10:00N 37°57' E 023°38'0 0.0
2018-Feb-20 09:30N 37°57' E 023°38'0 0.0
2018-Feb-20 09:00N 37°57' E 023°38'0 0.0
2018-Feb-20 08:30N 37°57' E 023°38'0 0.0
2018-Feb-20 08:00N 37°57' E 023°38'0 0.0
2018-Feb-20 07:28N 37°57' E 023°38'0 0.0
2018-Feb-20 07:00N 37°57' E 023°38'0 0.0
2018-Feb-20 06:30N 37°57' E 023°38'0 0.0
2018-Feb-20 06:00N 37°57' E 023°38'0 0.0
2018-Feb-20 05:30N 37°57' E 023°38'0 0.0
2018-Feb-20 05:00N 37°57' E 023°38'0 0.0
2018-Feb-20 04:30N 37°57' E 023°38'0 0.0
2018-Feb-20 04:00N 37°57' E 023°38'1 1.8
2018-Feb-20 03:30N 37°56' E 023°37'917.0
2018-Feb-20 03:00N 37°48' E 023°41'1019.4
2018-Feb-20 02:30N 37°39' E 023°44'18 0.6
2018-Feb-18 21:09N 37°21' E 023°47'419.5
2018-Feb-18 20:55N 37°26' E 023°46'819.5
2018-Feb-18 20:30N 37°33' E 023°44'1019.4
2018-Feb-18 20:00N 37°43' E 023°40'1019.1
2018-Feb-18 19:31N 37°52' E 023°36'510.4
2018-Feb-18 19:00N 37°57' E 023°38'0 0.0
2018-Feb-18 18:30N 37°57' E 023°38'0 0.0
2018-Feb-18 18:00N 37°57' E 023°38'0 0.0
2018-Feb-18 17:30N 37°57' E 023°38'0 0.0
2018-Feb-18 17:00N 37°57' E 023°38'0 0.0
2018-Feb-18 16:30N 37°57' E 023°38'0 0.0
2018-Feb-18 16:00N 37°57' E 023°38'0 0.0
2018-Feb-18 15:30N 37°57' E 023°38'0 0.0
2018-Feb-18 15:00N 37°57' E 023°38'0 0.0
2018-Feb-18 14:30N 37°57' E 023°38'0 0.0
2018-Feb-18 14:00N 37°57' E 023°38'0 0.0
2018-Feb-18 13:30N 37°57' E 023°38'0 0.0
2018-Feb-18 13:00N 37°57' E 023°38'0 0.0
2018-Feb-18 12:30N 37°57' E 023°38'0 0.0
2018-Feb-18 12:00N 37°57' E 023°38'0 0.0
2018-Feb-18 11:30N 37°57' E 023°38'0 0.0
2018-Feb-18 11:00N 37°57' E 023°38'0 0.0
2018-Feb-18 10:30N 37°57' E 023°38'0 0.0
2018-Feb-18 10:00N 37°57' E 023°38'0 0.0
2018-Feb-18 09:30N 37°57' E 023°38'0 0.0
2018-Feb-18 09:00N 37°57' E 023°38'0 0.0
2018-Feb-18 08:30N 37°57' E 023°38'0 0.0
2018-Feb-18 08:00N 37°57' E 023°38'0 0.0
2018-Feb-18 07:30N 37°57' E 023°38'0 0.0
2018-Feb-18 07:00N 37°57' E 023°38'0 0.0
2018-Feb-18 06:30N 37°57' E 023°38'0 0.0
2018-Feb-18 06:00N 37°57' E 023°38'0 0.0
2018-Feb-18 05:30N 37°57' E 023°38'0 0.0
2018-Feb-18 05:00N 37°57' E 023°38'0 0.0
2018-Feb-18 04:30N 37°57' E 023°38'0 0.0
2018-Feb-18 04:00N 37°57' E 023°38'1 2.8
2018-Feb-18 03:30N 37°56' E 023°37'918.0
2018-Feb-18 03:00N 37°48' E 023°41'918.8
2018-Feb-18 02:30N 37°39' E 023°45'919.0
2018-Feb-18 02:01N 37°30' E 023°47'4 0.1
2018-Feb-16 20:52N 37°33' E 023°44'719.5
2018-Feb-16 20:31N 37°39' E 023°42'1019.6
2018-Feb-16 20:01N 37°48' E 023°37'815.8
2018-Feb-16 19:30N 37°56' E 023°38'0 1.0
2018-Feb-16 19:01N 37°57' E 023°38'0 0.0
2018-Feb-16 18:31N 37°57' E 023°38'0 0.0
2018-Feb-16 18:01N 37°57' E 023°38'0 0.0
2018-Feb-16 17:31N 37°57' E 023°38'0 0.0
2018-Feb-16 17:00N 37°57' E 023°38'0 0.0
2018-Feb-16 16:31N 37°57' E 023°38'0 0.0
2018-Feb-16 16:01N 37°57' E 023°38'0 0.0
2018-Feb-16 15:31N 37°57' E 023°38'0 0.0
2018-Feb-16 15:01N 37°57' E 023°38'0 0.0
2018-Feb-16 14:31N 37°57' E 023°38'0 0.0
2018-Feb-16 14:01N 37°57' E 023°38'0 0.0
2018-Feb-16 13:31N 37°57' E 023°38'0 0.0
2018-Feb-16 13:01N 37°57' E 023°38'0 0.0
2018-Feb-16 12:31N 37°57' E 023°38'0 0.0
2018-Feb-16 12:01N 37°57' E 023°38'0 0.0
2018-Feb-16 11:31N 37°57' E 023°38'0 0.0
2018-Feb-16 11:01N 37°57' E 023°38'0 0.0
2018-Feb-16 10:31N 37°57' E 023°38'0 0.0
2018-Feb-16 10:00N 37°57' E 023°38'0 0.0
2018-Feb-16 09:31N 37°57' E 023°38'0 0.0
2018-Feb-16 09:01N 37°57' E 023°38'0 0.0
2018-Feb-16 08:31N 37°57' E 023°38'0 0.0
2018-Feb-16 08:00N 37°57' E 023°38'0 0.0
2018-Feb-16 07:31N 37°57' E 023°38'0 0.0
2018-Feb-16 07:01N 37°57' E 023°38'0 0.0
2018-Feb-16 06:31N 37°57' E 023°38'0 0.0
2018-Feb-16 06:01N 37°57' E 023°38'0 0.0
2018-Feb-16 05:31N 37°57' E 023°38'0 0.0
2018-Feb-16 05:01N 37°57' E 023°38'0 0.0
2018-Feb-16 04:31N 37°57' E 023°38'0 0.0
2018-Feb-16 04:01N 37°57' E 023°38'2 4.4
2018-Feb-16 03:30N 37°55' E 023°37'918.7
2018-Feb-16 03:00N 37°46' E 023°42'918.5
2018-Feb-16 02:30N 37°38' E 023°45'12 0.4
2018-Feb-14 21:06N 37°26' E 023°45'  

Dump ship's entire track history